sensor_id;sensor_type;location;lat;lon;timestamp;temperature;humidity
13976;DHT22;7062;49.792;9.946;2023-06-26T00:00:19;22.20;99.90
13976;DHT22;7062;49.792;9.946;2023-06-26T00:02:45;22.00;99.90
13976;DHT22;7062;49.792;9.946;2023-06-26T00:05:11;22.10;99.90
13976;DHT22;7062;49.792;9.946;2023-06-26T00:07:37;22.10;99.90
13976;DHT22;7062;49.792;9.946;2023-06-26T00:10:03;21.90;99.90
13976;DHT22;7062;49.792;9.946;2023-06-26T00:12:30;21.90;99.90
13976;DHT22;7062;49.792;9.946;2023-06-26T00:14:56;22.00;99.90
13976;DHT22;7062;49.792;9.946;2023-06-26T00:17:22;22.00;99.90
13976;DHT22;7062;49.792;9.946;2023-06-26T00:19:48;21.90;99.90
13976;DHT22;7062;49.792;9.946;2023-06-26T00:22:13;21.90;99.90
13976;DHT22;7062;49.792;9.946;2023-06-26T00:24:39;21.90;99.90
13976;DHT22;7062;49.792;9.946;2023-06-26T00:27:05;22.00;99.90
13976;DHT22;7062;49.792;9.946;2023-06-26T00:29:30;21.90;99.90
13976;DHT22;7062;49.792;9.946;2023-06-26T00:31:56;21.90;99.90
13976;DHT22;7062;49.792;9.946;2023-06-26T00:34:22;21.90;99.90
13976;DHT22;7062;49.792;9.946;2023-06-26T00:36:47;21.80;99.90
13976;DHT22;7062;49.792;9.946;2023-06-26T00:39:13;21.80;99.90
13976;DHT22;7062;49.792;9.946;2023-06-26T00:41:39;21.80;99.90
13976;DHT22;7062;49.792;9.946;2023-06-26T00:44:05;21.80;99.90
13976;DHT22;7062;49.792;9.946;2023-06-26T00:46:31;21.80;99.90
13976;DHT22;7062;49.792;9.946;2023-06-26T00:48:59;21.80;99.90
13976;DHT22;7062;49.792;9.946;2023-06-26T00:51:26;21.80;99.90
13976;DHT22;7062;49.792;9.946;2023-06-26T00:53:53;21.80;99.90
13976;DHT22;7062;49.792;9.946;2023-06-26T00:56:20;21.80;99.90
13976;DHT22;7062;49.792;9.946;2023-06-26T00:58:46;21.80;99.90
13976;DHT22;7062;49.792;9.946;2023-06-26T01:01:12;21.80;99.90
13976;DHT22;7062;49.792;9.946;2023-06-26T01:03:44;21.70;99.90
13976;DHT22;7062;49.792;9.946;2023-06-26T01:06:12;21.70;99.90
13976;DHT22;7062;49.792;9.946;2023-06-26T01:08:40;21.60;99.90
13976;DHT22;7062;49.792;9.946;2023-06-26T01:11:07;21.60;99.90
13976;DHT22;7062;49.792;9.946;2023-06-26T01:13:33;21.50;99.90
13976;DHT22;7062;49.792;9.946;2023-06-26T01:16:00;21.40;99.90
13976;DHT22;7062;49.792;9.946;2023-06-26T01:18:27;21.40;99.90
13976;DHT22;7062;49.792;9.946;2023-06-26T01:20:55;21.20;99.90
13976;DHT22;7062;49.792;9.946;2023-06-26T01:28:34;21.00;99.90
13976;DHT22;7062;49.792;9.946;2023-06-26T01:31:01;20.90;99.90
13976;DHT22;7062;49.792;9.946;2023-06-26T01:33:28;20.90;99.90
13976;DHT22;7062;49.792;9.946;2023-06-26T01:35:53;20.90;99.90
13976;DHT22;7062;49.792;9.946;2023-06-26T01:38:20;20.80;99.90
13976;DHT22;7062;49.792;9.946;2023-06-26T01:40:48;20.80;99.90
13976;DHT22;7062;49.792;9.946;2023-06-26T01:54:41;20.50;99.90
13976;DHT22;7062;49.792;9.946;2023-06-26T01:57:10;20.50;99.90
13976;DHT22;7062;49.792;9.946;2023-06-26T01:59:38;20.50;99.90
13976;DHT22;7062;49.792;9.946;2023-06-26T02:02:09;20.60;99.90
13976;DHT22;7062;49.792;9.946;2023-06-26T02:04:34;20.50;99.90
13976;DHT22;7062;49.792;9.946;2023-06-26T02:07:00;20.40;99.90
13976;DHT22;7062;49.792;9.946;2023-06-26T02:09:26;20.30;99.90
13976;DHT22;7062;49.792;9.946;2023-06-26T02:11:52;20.30;99.90
13976;DHT22;7062;49.792;9.946;2023-06-26T02:14:17;20.30;99.90
13976;DHT22;7062;49.792;9.946;2023-06-26T02:16:43;20.40;99.90
13976;DHT22;7062;49.792;9.946;2023-06-26T02:19:08;20.40;99.90
13976;DHT22;7062;49.792;9.946;2023-06-26T02:21:34;20.30;99.90
13976;DHT22;7062;49.792;9.946;2023-06-26T02:24:01;20.30;99.90
13976;DHT22;7062;49.792;9.946;2023-06-26T02:26:27;20.40;99.90
13976;DHT22;7062;49.792;9.946;2023-06-26T02:28:53;20.40;99.90
13976;DHT22;7062;49.792;9.946;2023-06-26T02:31:19;20.40;99.90
13976;DHT22;7062;49.792;9.946;2023-06-26T02:33:44;20.40;99.90
13976;DHT22;7062;49.792;9.946;2023-06-26T02:36:11;20.40;99.90
13976;DHT22;7062;49.792;9.946;2023-06-26T02:38:36;20.40;99.90
13976;DHT22;7062;49.792;9.946;2023-06-26T02:41:02;20.40;99.90
13976;DHT22;7062;49.792;9.946;2023-06-26T02:43:28;20.30;99.90
13976;DHT22;7062;49.792;9.946;2023-06-26T02:45:53;20.20;99.90
13976;DHT22;7062;49.792;9.946;2023-06-26T02:48:19;20.20;99.90
13976;DHT22;7062;49.792;9.946;2023-06-26T02:50:44;20.20;99.90
13976;DHT22;7062;49.792;9.946;2023-06-26T02:53:12;20.10;99.90
13976;DHT22;7062;49.792;9.946;2023-06-26T02:55:38;19.90;99.90
13976;DHT22;7062;49.792;9.946;2023-06-26T02:58:03;19.80;99.90
13976;DHT22;7062;49.792;9.946;2023-06-26T03:00:29;19.80;99.90
13976;DHT22;7062;49.792;9.946;2023-06-26T03:02:55;19.80;99.90
13976;DHT22;7062;49.792;9.946;2023-06-26T03:05:21;19.80;99.90
13976;DHT22;7062;49.792;9.946;2023-06-26T03:07:46;19.90;99.90
13976;DHT22;7062;49.792;9.946;2023-06-26T03:10:12;19.80;99.90
13976;DHT22;7062;49.792;9.946;2023-06-26T03:12:38;19.70;99.90
13976;DHT22;7062;49.792;9.946;2023-06-26T03:15:03;19.70;99.90
13976;DHT22;7062;49.792;9.946;2023-06-26T03:17:29;19.70;99.90
13976;DHT22;7062;49.792;9.946;2023-06-26T03:19:55;19.50;99.90
13976;DHT22;7062;49.792;9.946;2023-06-26T03:22:20;19.60;99.90
13976;DHT22;7062;49.792;9.946;2023-06-26T03:24:46;19.60;99.90
13976;DHT22;7062;49.792;9.946;2023-06-26T03:27:12;19.50;99.90
13976;DHT22;7062;49.792;9.946;2023-06-26T03:29:37;19.50;99.90
13976;DHT22;7062;49.792;9.946;2023-06-26T03:32:03;19.50;99.90
13976;DHT22;7062;49.792;9.946;2023-06-26T03:34:29;19.40;99.90
13976;DHT22;7062;49.792;9.946;2023-06-26T03:36:54;19.40;99.90
13976;DHT22;7062;49.792;9.946;2023-06-26T03:39:20;19.50;99.90
13976;DHT22;7062;49.792;9.946;2023-06-26T03:41:46;19.60;99.90
13976;DHT22;7062;49.792;9.946;2023-06-26T03:44:11;19.70;99.90
13976;DHT22;7062;49.792;9.946;2023-06-26T03:46:37;19.70;99.90
13976;DHT22;7062;49.792;9.946;2023-06-26T03:49:03;19.60;99.90
13976;DHT22;7062;49.792;9.946;2023-06-26T03:51:28;19.60;99.90
13976;DHT22;7062;49.792;9.946;2023-06-26T03:53:54;19.40;99.90
13976;DHT22;7062;49.792;9.946;2023-06-26T03:56:20;19.30;99.90
13976;DHT22;7062;49.792;9.946;2023-06-26T03:58:45;19.20;99.90
13976;DHT22;7062;49.792;9.946;2023-06-26T04:01:11;19.10;99.90
13976;DHT22;7062;49.792;9.946;2023-06-26T04:03:36;19.10;99.90
13976;DHT22;7062;49.792;9.946;2023-06-26T04:06:02;19.10;99.90
13976;DHT22;7062;49.792;9.946;2023-06-26T04:08:28;19.10;99.90
13976;DHT22;7062;49.792;9.946;2023-06-26T04:10:53;19.10;99.90
13976;DHT22;7062;49.792;9.946;2023-06-26T04:13:20;19.10;99.90
13976;DHT22;7062;49.792;9.946;2023-06-26T04:15:46;19.10;99.90
13976;DHT22;7062;49.792;9.946;2023-06-26T04:18:12;19.10;99.90
13976;DHT22;7062;49.792;9.946;2023-06-26T04:21:05;19.00;99.90
13976;DHT22;7062;49.792;9.946;2023-06-26T04:23:34;18.90;99.90
13976;DHT22;7062;49.792;9.946;2023-06-26T04:26:00;19.00;99.90
13976;DHT22;7062;49.792;9.946;2023-06-26T04:28:26;19.00;99.90
13976;DHT22;7062;49.792;9.946;2023-06-26T04:30:51;19.00;99.90
13976;DHT22;7062;49.792;9.946;2023-06-26T04:33:17;19.10;99.90
13976;DHT22;7062;49.792;9.946;2023-06-26T04:35:43;19.10;99.90
13976;DHT22;7062;49.792;9.946;2023-06-26T04:38:16;19.20;99.90
13976;DHT22;7062;49.792;9.946;2023-06-26T04:40:42;19.30;99.90
13976;DHT22;7062;49.792;9.946;2023-06-26T04:43:08;19.30;99.90
13976;DHT22;7062;49.792;9.946;2023-06-26T04:45:33;19.30;99.90
13976;DHT22;7062;49.792;9.946;2023-06-26T04:47:59;19.30;99.90
13976;DHT22;7062;49.792;9.946;2023-06-26T04:50:27;19.40;99.90
13976;DHT22;7062;49.792;9.946;2023-06-26T04:52:55;19.50;99.90
13976;DHT22;7062;49.792;9.946;2023-06-26T04:55:21;19.60;99.90
13976;DHT22;7062;49.792;9.946;2023-06-26T04:57:49;19.60;99.90
13976;DHT22;7062;49.792;9.946;2023-06-26T05:00:15;19.60;99.90
13976;DHT22;7062;49.792;9.946;2023-06-26T05:02:41;19.50;99.90
13976;DHT22;7062;49.792;9.946;2023-06-26T05:05:07;19.50;99.90
13976;DHT22;7062;49.792;9.946;2023-06-26T05:07:33;19.40;99.90
13976;DHT22;7062;49.792;9.946;2023-06-26T05:09:58;19.40;99.90
13976;DHT22;7062;49.792;9.946;2023-06-26T05:12:24;19.50;99.90
13976;DHT22;7062;49.792;9.946;2023-06-26T05:14:50;19.60;99.90
13976;DHT22;7062;49.792;9.946;2023-06-26T05:17:15;19.60;99.90
13976;DHT22;7062;49.792;9.946;2023-06-26T05:19:41;19.80;99.90
13976;DHT22;7062;49.792;9.946;2023-06-26T05:22:07;19.70;99.90
13976;DHT22;7062;49.792;9.946;2023-06-26T05:24:37;19.80;99.90
13976;DHT22;7062;49.792;9.946;2023-06-26T05:27:03;19.90;99.90
13976;DHT22;7062;49.792;9.946;2023-06-26T05:29:30;19.90;99.90
13976;DHT22;7062;49.792;9.946;2023-06-26T05:31:57;20.10;99.90
13976;DHT22;7062;49.792;9.946;2023-06-26T05:34:23;20.20;99.90
13976;DHT22;7062;49.792;9.946;2023-06-26T05:36:57;20.30;99.90
13976;DHT22;7062;49.792;9.946;2023-06-26T05:39:24;20.50;99.90
13976;DHT22;7062;49.792;9.946;2023-06-26T05:41:50;20.60;99.90
13976;DHT22;7062;49.792;9.946;2023-06-26T05:44:16;20.60;99.90
13976;DHT22;7062;49.792;9.946;2023-06-26T05:46:42;20.60;99.90
13976;DHT22;7062;49.792;9.946;2023-06-26T05:49:08;20.50;99.90
13976;DHT22;7062;49.792;9.946;2023-06-26T05:51:34;20.50;99.90
13976;DHT22;7062;49.792;9.946;2023-06-26T05:53:59;20.50;99.90
13976;DHT22;7062;49.792;9.946;2023-06-26T05:56:26;20.60;99.90
13976;DHT22;7062;49.792;9.946;2023-06-26T05:58:52;20.60;99.90
13976;DHT22;7062;49.792;9.946;2023-06-26T06:01:18;20.60;99.90
13976;DHT22;7062;49.792;9.946;2023-06-26T06:03:45;20.70;99.90
13976;DHT22;7062;49.792;9.946;2023-06-26T06:06:11;20.80;99.90
13976;DHT22;7062;49.792;9.946;2023-06-26T06:08:37;21.00;99.90
13976;DHT22;7062;49.792;9.946;2023-06-26T06:11:02;21.00;99.90
13976;DHT22;7062;49.792;9.946;2023-06-26T06:13:28;21.20;99.90
13976;DHT22;7062;49.792;9.946;2023-06-26T06:15:54;21.20;99.90
13976;DHT22;7062;49.792;9.946;2023-06-26T06:18:21;21.20;99.90
13976;DHT22;7062;49.792;9.946;2023-06-26T06:20:47;21.20;99.90
13976;DHT22;7062;49.792;9.946;2023-06-26T06:23:12;21.30;99.90
13976;DHT22;7062;49.792;9.946;2023-06-26T06:25:38;21.30;99.90
13976;DHT22;7062;49.792;9.946;2023-06-26T06:28:04;21.30;99.90
13976;DHT22;7062;49.792;9.946;2023-06-26T06:30:30;21.30;99.90
13976;DHT22;7062;49.792;9.946;2023-06-26T06:32:55;21.40;99.90
13976;DHT22;7062;49.792;9.946;2023-06-26T06:35:21;21.50;99.90
13976;DHT22;7062;49.792;9.946;2023-06-26T06:37:47;21.50;99.90
13976;DHT22;7062;49.792;9.946;2023-06-26T06:40:12;21.60;99.90
13976;DHT22;7062;49.792;9.946;2023-06-26T06:42:38;21.70;99.90
13976;DHT22;7062;49.792;9.946;2023-06-26T06:45:05;21.70;99.90
13976;DHT22;7062;49.792;9.946;2023-06-26T06:47:32;21.80;99.90
13976;DHT22;7062;49.792;9.946;2023-06-26T06:49:59;21.80;99.90
13976;DHT22;7062;49.792;9.946;2023-06-26T06:52:39;21.80;99.90
13976;DHT22;7062;49.792;9.946;2023-06-26T06:55:06;21.90;99.90
13976;DHT22;7062;49.792;9.946;2023-06-26T06:57:38;22.00;99.90
13976;DHT22;7062;49.792;9.946;2023-06-26T07:02:30;22.20;99.90
13976;DHT22;7062;49.792;9.946;2023-06-26T07:04:56;22.20;99.90
13976;DHT22;7062;49.792;9.946;2023-06-26T07:07:21;22.30;99.90
13976;DHT22;7062;49.792;9.946;2023-06-26T07:09:47;22.30;99.90
13976;DHT22;7062;49.792;9.946;2023-06-26T07:12:13;22.40;99.90
13976;DHT22;7062;49.792;9.946;2023-06-26T07:14:39;22.40;99.90
13976;DHT22;7062;49.792;9.946;2023-06-26T07:17:04;22.50;99.90
13976;DHT22;7062;49.792;9.946;2023-06-26T07:19:30;22.60;99.90
13976;DHT22;7062;49.792;9.946;2023-06-26T07:21:56;22.70;99.90
13976;DHT22;7062;49.792;9.946;2023-06-26T07:24:21;22.80;99.90
13976;DHT22;7062;49.792;9.946;2023-06-26T07:26:47;22.90;99.90
13976;DHT22;7062;49.792;9.946;2023-06-26T07:29:12;22.90;99.90
13976;DHT22;7062;49.792;9.946;2023-06-26T07:31:38;22.90;99.90
13976;DHT22;7062;49.792;9.946;2023-06-26T07:34:04;23.00;99.90
13976;DHT22;7062;49.792;9.946;2023-06-26T07:36:29;23.00;99.90
13976;DHT22;7062;49.792;9.946;2023-06-26T07:38:55;23.10;99.90
13976;DHT22;7062;49.792;9.946;2023-06-26T07:41:20;23.20;99.90
13976;DHT22;7062;49.792;9.946;2023-06-26T07:43:46;23.30;99.90
13976;DHT22;7062;49.792;9.946;2023-06-26T07:46:12;23.30;99.90
13976;DHT22;7062;49.792;9.946;2023-06-26T07:48:37;23.40;99.90
13976;DHT22;7062;49.792;9.946;2023-06-26T07:51:03;23.50;99.90
13976;DHT22;7062;49.792;9.946;2023-06-26T07:53:28;23.50;99.90
13976;DHT22;7062;49.792;9.946;2023-06-26T07:55:54;23.60;99.90
13976;DHT22;7062;49.792;9.946;2023-06-26T07:58:20;23.80;99.90
13976;DHT22;7062;49.792;9.946;2023-06-26T08:00:45;23.80;99.90
13976;DHT22;7062;49.792;9.946;2023-06-26T08:03:11;23.90;99.90
13976;DHT22;7062;49.792;9.946;2023-06-26T08:05:36;24.00;99.90
13976;DHT22;7062;49.792;9.946;2023-06-26T08:08:02;24.10;99.90
13976;DHT22;7062;49.792;9.946;2023-06-26T08:10:28;24.20;99.90
13976;DHT22;7062;49.792;9.946;2023-06-26T08:12:55;24.30;99.90
13976;DHT22;7062;49.792;9.946;2023-06-26T08:15:21;24.40;99.90
13976;DHT22;7062;49.792;9.946;2023-06-26T08:17:47;24.60;99.90
13976;DHT22;7062;49.792;9.946;2023-06-26T08:20:12;24.70;99.90
13976;DHT22;7062;49.792;9.946;2023-06-26T08:22:39;24.80;99.90
13976;DHT22;7062;49.792;9.946;2023-06-26T08:25:05;24.80;99.90
13976;DHT22;7062;49.792;9.946;2023-06-26T08:27:32;24.90;99.90
13976;DHT22;7062;49.792;9.946;2023-06-26T08:29:57;25.20;99.90
13976;DHT22;7062;49.792;9.946;2023-06-26T08:32:24;25.30;99.90
13976;DHT22;7062;49.792;9.946;2023-06-26T08:34:50;25.40;99.90
13976;DHT22;7062;49.792;9.946;2023-06-26T08:37:16;25.50;99.90
13976;DHT22;7062;49.792;9.946;2023-06-26T08:39:41;25.60;99.90
13976;DHT22;7062;49.792;9.946;2023-06-26T08:42:07;25.70;99.90
13976;DHT22;7062;49.792;9.946;2023-06-26T08:44:33;25.90;99.90
13976;DHT22;7062;49.792;9.946;2023-06-26T08:47:02;26.10;99.90
13976;DHT22;7062;49.792;9.946;2023-06-26T08:49:37;26.20;99.90
13976;DHT22;7062;49.792;9.946;2023-06-26T08:52:13;26.40;99.90
13976;DHT22;7062;49.792;9.946;2023-06-26T08:54:45;26.40;99.90
13976;DHT22;7062;49.792;9.946;2023-06-26T08:57:15;26.50;99.90
13976;DHT22;7062;49.792;9.946;2023-06-26T08:59:43;26.60;99.90
13976;DHT22;7062;49.792;9.946;2023-06-26T09:02:08;26.70;99.90
13976;DHT22;7062;49.792;9.946;2023-06-26T09:04:35;26.80;99.90
13976;DHT22;7062;49.792;9.946;2023-06-26T09:07:01;26.90;99.90
13976;DHT22;7062;49.792;9.946;2023-06-26T09:09:27;27.10;99.90
13976;DHT22;7062;49.792;9.946;2023-06-26T09:11:53;27.20;99.90
13976;DHT22;7062;49.792;9.946;2023-06-26T09:14:21;27.40;99.90
13976;DHT22;7062;49.792;9.946;2023-06-26T09:16:46;27.50;99.90
13976;DHT22;7062;49.792;9.946;2023-06-26T09:19:12;27.60;99.60
13976;DHT22;7062;49.792;9.946;2023-06-26T09:21:42;27.70;99.50
13976;DHT22;7062;49.792;9.946;2023-06-26T09:24:08;27.70;99.50
13976;DHT22;7062;49.792;9.946;2023-06-26T09:26:39;27.80;98.80
13976;DHT22;7062;49.792;9.946;2023-06-26T09:29:05;28.00;98.20
13976;DHT22;7062;49.792;9.946;2023-06-26T09:31:32;28.00;98.80
13976;DHT22;7062;49.792;9.946;2023-06-26T09:33:59;28.00;98.40
13976;DHT22;7062;49.792;9.946;2023-06-26T09:36:27;28.10;96.30
13976;DHT22;7062;49.792;9.946;2023-06-26T09:38:54;28.40;94.20
13976;DHT22;7062;49.792;9.946;2023-06-26T09:41:20;28.50;95.50
13976;DHT22;7062;49.792;9.946;2023-06-26T09:43:47;28.80;93.80
13976;DHT22;7062;49.792;9.946;2023-06-26T09:46:17;28.90;92.90
13976;DHT22;7062;49.792;9.946;2023-06-26T09:48:43;29.20;92.70
13976;DHT22;7062;49.792;9.946;2023-06-26T09:51:10;29.30;92.20
13976;DHT22;7062;49.792;9.946;2023-06-26T09:53:35;29.50;92.10
13976;DHT22;7062;49.792;9.946;2023-06-26T09:56:07;29.70;91.30
13976;DHT22;7062;49.792;9.946;2023-06-26T09:58:33;30.00;91.50
13976;DHT22;7062;49.792;9.946;2023-06-26T10:00:59;30.40;90.70
13976;DHT22;7062;49.792;9.946;2023-06-26T10:03:25;30.60;89.20
13976;DHT22;7062;49.792;9.946;2023-06-26T10:05:51;31.00;88.80
13976;DHT22;7062;49.792;9.946;2023-06-26T10:08:17;31.30;85.50
13976;DHT22;7062;49.792;9.946;2023-06-26T10:10:43;31.60;85.40
13976;DHT22;7062;49.792;9.946;2023-06-26T10:13:24;32.10;83.20
13976;DHT22;7062;49.792;9.946;2023-06-26T10:15:51;32.60;80.90
13976;DHT22;7062;49.792;9.946;2023-06-26T10:18:18;33.10;79.30
13976;DHT22;7062;49.792;9.946;2023-06-26T10:20:48;33.40;78.90
13976;DHT22;7062;49.792;9.946;2023-06-26T10:23:14;33.90;77.70
13976;DHT22;7062;49.792;9.946;2023-06-26T10:25:44;34.40;75.80
13976;DHT22;7062;49.792;9.946;2023-06-26T10:28:12;35.20;73.80
13976;DHT22;7062;49.792;9.946;2023-06-26T10:30:39;35.90;72.80
13976;DHT22;7062;49.792;9.946;2023-06-26T10:33:05;37.20;68.70
13976;DHT22;7062;49.792;9.946;2023-06-26T10:35:33;38.70;66.70
13976;DHT22;7062;49.792;9.946;2023-06-26T10:38:02;40.10;62.20
13976;DHT22;7062;49.792;9.946;2023-06-26T10:40:42;41.40;59.40
13976;DHT22;7062;49.792;9.946;2023-06-26T10:43:09;38.60;60.50
13976;DHT22;7062;49.792;9.946;2023-06-26T10:45:35;39.20;61.20
13976;DHT22;7062;49.792;9.946;2023-06-26T10:48:02;41.10;59.30
13976;DHT22;7062;49.792;9.946;2023-06-26T10:50:31;40.10;57.80
13976;DHT22;7062;49.792;9.946;2023-06-26T10:55:51;36.10;62.70
13976;DHT22;7062;49.792;9.946;2023-06-26T11:03:47;42.90;56.30
13976;DHT22;7062;49.792;9.946;2023-06-26T11:06:19;41.70;55.20
13976;DHT22;7062;49.792;9.946;2023-06-26T11:08:50;41.50;55.80
13976;DHT22;7062;49.792;9.946;2023-06-26T11:11:17;40.00;56.90
13976;DHT22;7062;49.792;9.946;2023-06-26T11:13:45;40.90;56.60
13976;DHT22;7062;49.792;9.946;2023-06-26T11:16:12;40.70;56.60
13976;DHT22;7062;49.792;9.946;2023-06-26T11:18:38;38.20;58.20
13976;DHT22;7062;49.792;9.946;2023-06-26T11:21:08;36.30;61.40
13976;DHT22;7062;49.792;9.946;2023-06-26T11:23:35;35.50;63.10
13976;DHT22;7062;49.792;9.946;2023-06-26T11:26:20;37.70;62.10
13976;DHT22;7062;49.792;9.946;2023-06-26T11:28:54;37.50;60.80
13976;DHT22;7062;49.792;9.946;2023-06-26T11:31:40;37.40;62.20
13976;DHT22;7062;49.792;9.946;2023-06-26T11:34:08;40.20;59.70
13976;DHT22;7062;49.792;9.946;2023-06-26T11:36:35;41.70;57.90
13976;DHT22;7062;49.792;9.946;2023-06-26T11:39:05;43.40;56.50
13976;DHT22;7062;49.792;9.946;2023-06-26T11:41:39;44.10;55.50
13976;DHT22;7062;49.792;9.946;2023-06-26T11:44:07;45.20;54.10
13976;DHT22;7062;49.792;9.946;2023-06-26T11:46:34;45.20;53.20
13976;DHT22;7062;49.792;9.946;2023-06-26T11:49:03;46.00;52.40
13976;DHT22;7062;49.792;9.946;2023-06-26T11:51:28;44.60;53.00
13976;DHT22;7062;49.792;9.946;2023-06-26T11:53:54;45.00;53.00
13976;DHT22;7062;49.792;9.946;2023-06-26T11:56:20;45.30;52.00
13976;DHT22;7062;49.792;9.946;2023-06-26T11:59:04;45.90;51.80
13976;DHT22;7062;49.792;9.946;2023-06-26T12:01:39;46.40;51.70
13976;DHT22;7062;49.792;9.946;2023-06-26T12:04:09;46.50;51.10
13976;DHT22;7062;49.792;9.946;2023-06-26T12:06:37;45.90;50.70
13976;DHT22;7062;49.792;9.946;2023-06-26T12:09:05;46.10;51.00
13976;DHT22;7062;49.792;9.946;2023-06-26T12:11:34;46.20;50.30
13976;DHT22;7062;49.792;9.946;2023-06-26T12:14:00;45.50;50.90
13976;DHT22;7062;49.792;9.946;2023-06-26T12:16:33;43.30;52.00
13976;DHT22;7062;49.792;9.946;2023-06-26T12:19:00;42.30;52.70
13976;DHT22;7062;49.792;9.946;2023-06-26T12:21:46;42.60;53.30
13976;DHT22;7062;49.792;9.946;2023-06-26T12:24:16;43.60;52.20
13976;DHT22;7062;49.792;9.946;2023-06-26T12:26:43;44.00;51.20
13976;DHT22;7062;49.792;9.946;2023-06-26T12:29:14;43.10;51.70
13976;DHT22;7062;49.792;9.946;2023-06-26T12:31:45;42.00;52.90
13976;DHT22;7062;49.792;9.946;2023-06-26T12:34:13;41.80;53.40
13976;DHT22;7062;49.792;9.946;2023-06-26T12:36:46;41.70;53.40
13976;DHT22;7062;49.792;9.946;2023-06-26T12:39:16;41.60;53.80
13976;DHT22;7062;49.792;9.946;2023-06-26T12:42:00;41.70;53.20
13976;DHT22;7062;49.792;9.946;2023-06-26T12:44:30;40.10;54.60
13976;DHT22;7062;49.792;9.946;2023-06-26T12:47:00;38.10;56.90
13976;DHT22;7062;49.792;9.946;2023-06-26T12:49:37;36.50;59.40
13976;DHT22;7062;49.792;9.946;2023-06-26T12:52:05;36.70;59.80
13976;DHT22;7062;49.792;9.946;2023-06-26T12:54:31;37.30;59.30
13976;DHT22;7062;49.792;9.946;2023-06-26T12:56:57;37.40;58.90
13976;DHT22;7062;49.792;9.946;2023-06-26T12:59:23;37.60;59.00
13976;DHT22;7062;49.792;9.946;2023-06-26T13:01:49;37.90;58.60
13976;DHT22;7062;49.792;9.946;2023-06-26T13:04:15;38.20;58.20
13976;DHT22;7062;49.792;9.946;2023-06-26T13:06:40;38.40;58.00
13976;DHT22;7062;49.792;9.946;2023-06-26T13:09:06;37.90;58.40
13976;DHT22;7062;49.792;9.946;2023-06-26T13:11:33;36.90;59.20
13976;DHT22;7062;49.792;9.946;2023-06-26T13:13:59;35.50;61.40
13976;DHT22;7062;49.792;9.946;2023-06-26T13:16:25;34.40;63.70
13976;DHT22;7062;49.792;9.946;2023-06-26T13:18:50;33.80;64.90
13976;DHT22;7062;49.792;9.946;2023-06-26T13:21:16;33.30;66.30
13976;DHT22;7062;49.792;9.946;2023-06-26T13:23:43;34.00;65.80
13976;DHT22;7062;49.792;9.946;2023-06-26T13:26:09;35.30;64.40
13976;DHT22;7062;49.792;9.946;2023-06-26T13:28:36;35.80;63.20
13976;DHT22;7062;49.792;9.946;2023-06-26T13:31:02;36.30;62.50
13976;DHT22;7062;49.792;9.946;2023-06-26T13:33:28;37.10;61.40
13976;DHT22;7062;49.792;9.946;2023-06-26T13:35:54;37.40;60.90
13976;DHT22;7062;49.792;9.946;2023-06-26T13:38:23;37.30;60.50
13976;DHT22;7062;49.792;9.946;2023-06-26T13:40:53;37.10;60.70
13976;DHT22;7062;49.792;9.946;2023-06-26T13:43:20;36.20;62.00
13976;DHT22;7062;49.792;9.946;2023-06-26T13:45:46;35.40;63.30
13976;DHT22;7062;49.792;9.946;2023-06-26T13:48:12;35.40;63.50
13976;DHT22;7062;49.792;9.946;2023-06-26T13:50:38;35.80;62.90
13976;DHT22;7062;49.792;9.946;2023-06-26T13:53:04;36.10;62.40
13976;DHT22;7062;49.792;9.946;2023-06-26T13:55:29;35.90;62.70
13976;DHT22;7062;49.792;9.946;2023-06-26T13:57:56;34.80;64.20
13976;DHT22;7062;49.792;9.946;2023-06-26T14:00:22;34.50;65.30
13976;DHT22;7062;49.792;9.946;2023-06-26T14:02:48;34.40;65.60
13976;DHT22;7062;49.792;9.946;2023-06-26T14:05:14;34.60;64.80
13976;DHT22;7062;49.792;9.946;2023-06-26T14:07:40;34.80;65.00
13976;DHT22;7062;49.792;9.946;2023-06-26T14:10:06;34.50;65.50
13976;DHT22;7062;49.792;9.946;2023-06-26T14:12:32;34.70;65.60
13976;DHT22;7062;49.792;9.946;2023-06-26T14:14:58;34.70;65.80
13976;DHT22;7062;49.792;9.946;2023-06-26T14:17:24;34.70;65.40
13976;DHT22;7062;49.792;9.946;2023-06-26T14:19:52;34.70;65.30
13976;DHT22;7062;49.792;9.946;2023-06-26T14:22:18;34.90;65.20
13976;DHT22;7062;49.792;9.946;2023-06-26T14:24:43;35.20;65.00
13976;DHT22;7062;49.792;9.946;2023-06-26T14:27:09;35.20;64.80
13976;DHT22;7062;49.792;9.946;2023-06-26T14:29:38;35.30;64.40
13976;DHT22;7062;49.792;9.946;2023-06-26T14:32:04;35.40;63.50
13976;DHT22;7062;49.792;9.946;2023-06-26T14:34:29;35.60;63.10
13976;DHT22;7062;49.792;9.946;2023-06-26T14:36:55;35.70;62.40
13976;DHT22;7062;49.792;9.946;2023-06-26T14:39:21;35.50;62.50
13976;DHT22;7062;49.792;9.946;2023-06-26T14:41:47;35.50;62.10
13976;DHT22;7062;49.792;9.946;2023-06-26T14:44:14;34.80;63.20
13976;DHT22;7062;49.792;9.946;2023-06-26T14:46:39;34.40;64.20
13976;DHT22;7062;49.792;9.946;2023-06-26T14:49:06;33.90;64.40
13976;DHT22;7062;49.792;9.946;2023-06-26T14:51:32;33.00;66.20
13976;DHT22;7062;49.792;9.946;2023-06-26T14:53:58;32.90;67.00
13976;DHT22;7062;49.792;9.946;2023-06-26T14:56:23;32.50;67.50
13976;DHT22;7062;49.792;9.946;2023-06-26T14:58:50;32.30;67.40
13976;DHT22;7062;49.792;9.946;2023-06-26T15:01:18;32.20;66.30
13976;DHT22;7062;49.792;9.946;2023-06-26T15:03:45;32.10;66.80
13976;DHT22;7062;49.792;9.946;2023-06-26T15:06:11;32.10;66.40
13976;DHT22;7062;49.792;9.946;2023-06-26T15:08:37;31.90;66.90
13976;DHT22;7062;49.792;9.946;2023-06-26T15:11:03;31.70;67.10
13976;DHT22;7062;49.792;9.946;2023-06-26T15:13:28;31.50;67.20
13976;DHT22;7062;49.792;9.946;2023-06-26T15:15:54;31.40;66.80
13976;DHT22;7062;49.792;9.946;2023-06-26T15:18:20;31.30;66.50
13976;DHT22;7062;49.792;9.946;2023-06-26T15:20:45;31.20;66.80
13976;DHT22;7062;49.792;9.946;2023-06-26T15:23:11;31.10;67.20
13976;DHT22;7062;49.792;9.946;2023-06-26T15:25:37;31.20;66.80
13976;DHT22;7062;49.792;9.946;2023-06-26T15:28:04;31.30;67.10
13976;DHT22;7062;49.792;9.946;2023-06-26T15:30:30;31.40;67.90
13976;DHT22;7062;49.792;9.946;2023-06-26T15:32:56;31.40;68.30
13976;DHT22;7062;49.792;9.946;2023-06-26T15:35:21;31.40;69.20
13976;DHT22;7062;49.792;9.946;2023-06-26T15:37:47;31.40;69.90
13976;DHT22;7062;49.792;9.946;2023-06-26T15:40:15;31.60;70.60
13976;DHT22;7062;49.792;9.946;2023-06-26T15:42:48;31.60;70.40
13976;DHT22;7062;49.792;9.946;2023-06-26T15:45:14;31.60;71.30
13976;DHT22;7062;49.792;9.946;2023-06-26T15:47:40;31.50;72.20
13976;DHT22;7062;49.792;9.946;2023-06-26T15:50:07;31.10;72.80
13976;DHT22;7062;49.792;9.946;2023-06-26T15:52:32;31.00;73.30
13976;DHT22;7062;49.792;9.946;2023-06-26T15:54:58;30.50;73.90
13976;DHT22;7062;49.792;9.946;2023-06-26T15:57:24;30.20;74.50
13976;DHT22;7062;49.792;9.946;2023-06-26T15:59:49;29.90;74.90
13976;DHT22;7062;49.792;9.946;2023-06-26T16:02:15;29.80;75.10
13976;DHT22;7062;49.792;9.946;2023-06-26T16:04:41;29.80;75.50
13976;DHT22;7062;49.792;9.946;2023-06-26T16:07:06;29.80;75.70
13976;DHT22;7062;49.792;9.946;2023-06-26T16:09:32;30.10;75.40